sensor_id;sensor_type;location;lat;lon;timestamp;temperature;humidity
24636;DHT22;12772;49.794;10.024;2023-02-01T00:02:03;6.80;65.20
24636;DHT22;12772;49.794;10.024;2023-02-01T00:06:05;6.80;65.20
24636;DHT22;12772;49.794;10.024;2023-02-01T00:10:07;6.80;65.30
24636;DHT22;12772;49.794;10.024;2023-02-01T00:14:10;6.80;65.70
24636;DHT22;12772;49.794;10.024;2023-02-01T00:18:12;6.50;65.70
24636;DHT22;12772;49.794;10.024;2023-02-01T00:22:14;6.40;66.00
24636;DHT22;12772;49.794;10.024;2023-02-01T00:26:18;6.70;66.30
24636;DHT22;12772;49.794;10.024;2023-02-01T00:30:21;6.80;66.40
24636;DHT22;12772;49.794;10.024;2023-02-01T00:34:23;6.40;66.10
24636;DHT22;12772;49.794;10.024;2023-02-01T00:38:26;6.80;66.30
24636;DHT22;12772;49.794;10.024;2023-02-01T00:42:28;6.90;66.10
24636;DHT22;12772;49.794;10.024;2023-02-01T00:46:31;6.70;65.80
24636;DHT22;12772;49.794;10.024;2023-02-01T00:50:33;6.40;65.60
24636;DHT22;12772;49.794;10.024;2023-02-01T00:54:35;6.40;65.50
24636;DHT22;12772;49.794;10.024;2023-02-01T00:58:38;6.40;65.60
24636;DHT22;12772;49.794;10.024;2023-02-01T01:02:41;6.60;65.80
24636;DHT22;12772;49.794;10.024;2023-02-01T01:06:43;6.30;65.60
24636;DHT22;12772;49.794;10.024;2023-02-01T01:10:45;6.50;65.70
24636;DHT22;12772;49.794;10.024;2023-02-01T01:14:47;6.80;65.80
24636;DHT22;12772;49.794;10.024;2023-02-01T01:18:50;6.90;65.70
24636;DHT22;12772;49.794;10.024;2023-02-01T01:22:53;6.40;65.20
24636;DHT22;12772;49.794;10.024;2023-02-01T01:26:55;6.70;65.50
24636;DHT22;12772;49.794;10.024;2023-02-01T01:30:57;6.90;65.80
24636;DHT22;12772;49.794;10.024;2023-02-01T01:34:59;6.40;65.60
24636;DHT22;12772;49.794;10.024;2023-02-01T01:39:01;6.80;65.80
24636;DHT22;12772;49.794;10.024;2023-02-01T01:43:03;6.80;65.60
24636;DHT22;12772;49.794;10.024;2023-02-01T01:47:08;6.80;65.60
24636;DHT22;12772;49.794;10.024;2023-02-01T01:51:13;6.40;65.20
24636;DHT22;12772;49.794;10.024;2023-02-01T01:55:17;6.60;65.30
24636;DHT22;12772;49.794;10.024;2023-02-01T01:59:21;6.70;65.30
24636;DHT22;12772;49.794;10.024;2023-02-01T02:03:34;6.80;65.50
24636;DHT22;12772;49.794;10.024;2023-02-01T02:07:39;6.90;65.40
24636;DHT22;12772;49.794;10.024;2023-02-01T02:11:42;7.10;65.60
24636;DHT22;12772;49.794;10.024;2023-02-01T02:25:55;6.80;65.20
24636;DHT22;12772;49.794;10.024;2023-02-01T02:34:31;6.90;65.20
24636;DHT22;12772;49.794;10.024;2023-02-01T02:38:50;6.90;65.30
24636;DHT22;12772;49.794;10.024;2023-02-01T02:47:39;7.20;65.50
24636;DHT22;12772;49.794;10.024;2023-02-01T02:51:46;6.80;64.90
24636;DHT22;12772;49.794;10.024;2023-02-01T02:56:08;6.50;65.00
24636;DHT22;12772;49.794;10.024;2023-02-01T03:00:32;7.00;65.20
24636;DHT22;12772;49.794;10.024;2023-02-01T03:04:55;6.70;65.10
24636;DHT22;12772;49.794;10.024;2023-02-01T03:08:58;6.90;65.20
24636;DHT22;12772;49.794;10.024;2023-02-01T03:13:09;6.90;65.30
24636;DHT22;12772;49.794;10.024;2023-02-01T03:17:15;6.90;65.20
24636;DHT22;12772;49.794;10.024;2023-02-01T03:21:36;6.40;64.90
24636;DHT22;12772;49.794;10.024;2023-02-01T03:25:39;6.40;65.20
24636;DHT22;12772;49.794;10.024;2023-02-01T03:33:53;6.90;66.40
24636;DHT22;12772;49.794;10.024;2023-02-01T03:38:03;6.70;66.40
24636;DHT22;12772;49.794;10.024;2023-02-01T03:42:18;6.80;66.40
24636;DHT22;12772;49.794;10.024;2023-02-01T03:46:27;6.90;66.50
24636;DHT22;12772;49.794;10.024;2023-02-01T03:50:35;6.80;66.50
24636;DHT22;12772;49.794;10.024;2023-02-01T03:54:39;6.70;66.30
24636;DHT22;12772;49.794;10.024;2023-02-01T03:58:41;6.90;66.40
24636;DHT22;12772;49.794;10.024;2023-02-01T04:02:58;6.80;66.50
24636;DHT22;12772;49.794;10.024;2023-02-01T04:07:00;6.40;66.30
24636;DHT22;12772;49.794;10.024;2023-02-01T04:11:02;6.80;66.70
24636;DHT22;12772;49.794;10.024;2023-02-01T04:15:05;6.70;66.70
24636;DHT22;12772;49.794;10.024;2023-02-01T04:19:07;6.90;67.10
24636;DHT22;12772;49.794;10.024;2023-02-01T04:23:09;6.80;66.90
24636;DHT22;12772;49.794;10.024;2023-02-01T04:27:11;6.50;66.50
24636;DHT22;12772;49.794;10.024;2023-02-01T04:31:17;6.70;66.40
24636;DHT22;12772;49.794;10.024;2023-02-01T04:35:25;6.60;66.00
24636;DHT22;12772;49.794;10.024;2023-02-01T04:39:28;6.30;65.40
24636;DHT22;12772;49.794;10.024;2023-02-01T04:43:30;6.60;65.00
24636;DHT22;12772;49.794;10.024;2023-02-01T04:47:32;6.20;64.70
24636;DHT22;12772;49.794;10.024;2023-02-01T04:51:34;6.70;65.10
24636;DHT22;12772;49.794;10.024;2023-02-01T04:55:36;6.20;64.70
24636;DHT22;12772;49.794;10.024;2023-02-01T04:59:38;6.60;64.90
24636;DHT22;12772;49.794;10.024;2023-02-01T05:03:40;6.60;64.60
24636;DHT22;12772;49.794;10.024;2023-02-01T05:07:42;6.50;64.70
24636;DHT22;12772;49.794;10.024;2023-02-01T05:11:44;6.60;64.60
24636;DHT22;12772;49.794;10.024;2023-02-01T05:16:04;6.50;64.50
24636;DHT22;12772;49.794;10.024;2023-02-01T05:20:07;6.50;64.50
24636;DHT22;12772;49.794;10.024;2023-02-01T05:24:10;6.70;64.60
24636;DHT22;12772;49.794;10.024;2023-02-01T05:28:13;6.50;64.40
24636;DHT22;12772;49.794;10.024;2023-02-01T05:32:15;6.60;64.30
24636;DHT22;12772;49.794;10.024;2023-02-01T05:36:17;6.40;64.10
24636;DHT22;12772;49.794;10.024;2023-02-01T05:40:19;6.60;64.30
24636;DHT22;12772;49.794;10.024;2023-02-01T05:44:22;6.10;63.80
24636;DHT22;12772;49.794;10.024;2023-02-01T05:48:24;5.90;63.90
24636;DHT22;12772;49.794;10.024;2023-02-01T05:52:26;6.50;64.30
24636;DHT22;12772;49.794;10.024;2023-02-01T05:56:28;6.20;64.40
24636;DHT22;12772;49.794;10.024;2023-02-01T06:00:30;6.40;64.90
24636;DHT22;12772;49.794;10.024;2023-02-01T06:04:33;6.30;64.80
24636;DHT22;12772;49.794;10.024;2023-02-01T06:08:35;6.50;65.00
24636;DHT22;12772;49.794;10.024;2023-02-01T06:12:37;6.30;64.80
24636;DHT22;12772;49.794;10.024;2023-02-01T06:16:39;6.40;64.90
24636;DHT22;12772;49.794;10.024;2023-02-01T06:20:41;6.20;64.70
24636;DHT22;12772;49.794;10.024;2023-02-01T06:24:43;6.40;64.90
24636;DHT22;12772;49.794;10.024;2023-02-01T06:28:45;6.20;64.70
24636;DHT22;12772;49.794;10.024;2023-02-01T06:32:50;6.50;65.00
24636;DHT22;12772;49.794;10.024;2023-02-01T06:36:54;6.50;65.00
24636;DHT22;12772;49.794;10.024;2023-02-01T06:40:57;6.50;65.00
24636;DHT22;12772;49.794;10.024;2023-02-01T06:44:59;6.60;65.00
24636;DHT22;12772;49.794;10.024;2023-02-01T06:49:01;6.60;65.00
24636;DHT22;12772;49.794;10.024;2023-02-01T06:53:03;6.50;65.00
24636;DHT22;12772;49.794;10.024;2023-02-01T06:57:05;6.50;65.00
24636;DHT22;12772;49.794;10.024;2023-02-01T07:01:08;6.30;65.30
24636;DHT22;12772;49.794;10.024;2023-02-01T07:05:11;6.10;64.70
24636;DHT22;12772;49.794;10.024;2023-02-01T07:09:13;6.20;64.70
24636;DHT22;12772;49.794;10.024;2023-02-01T07:13:15;6.20;64.80
24636;DHT22;12772;49.794;10.024;2023-02-01T07:17:17;6.30;64.50
24636;DHT22;12772;49.794;10.024;2023-02-01T07:21:20;6.60;64.50
24636;DHT22;12772;49.794;10.024;2023-02-01T07:25:22;6.60;64.80
24636;DHT22;12772;49.794;10.024;2023-02-01T07:29:25;6.60;64.10
24636;DHT22;12772;49.794;10.024;2023-02-01T07:33:27;6.20;63.80
24636;DHT22;12772;49.794;10.024;2023-02-01T07:37:29;6.50;64.10
24636;DHT22;12772;49.794;10.024;2023-02-01T07:41:31;6.70;64.50
24636;DHT22;12772;49.794;10.024;2023-02-01T07:45:35;6.50;64.50
24636;DHT22;12772;49.794;10.024;2023-02-01T07:49:37;6.70;64.70
24636;DHT22;12772;49.794;10.024;2023-02-01T07:53:39;6.00;64.20
24636;DHT22;12772;49.794;10.024;2023-02-01T07:57:42;6.50;64.40
24636;DHT22;12772;49.794;10.024;2023-02-01T08:01:44;6.50;64.50
24636;DHT22;12772;49.794;10.024;2023-02-01T08:05:46;6.60;64.20
24636;DHT22;12772;49.794;10.024;2023-02-01T08:09:48;6.70;64.60
24636;DHT22;12772;49.794;10.024;2023-02-01T08:13:50;6.80;64.10
24636;DHT22;12772;49.794;10.024;2023-02-01T08:17:52;6.60;63.90
24636;DHT22;12772;49.794;10.024;2023-02-01T08:21:55;7.00;64.00
24636;DHT22;12772;49.794;10.024;2023-02-01T08:26:21;6.90;63.50
24636;DHT22;12772;49.794;10.024;2023-02-01T08:30:23;6.90;63.40
24636;DHT22;12772;49.794;10.024;2023-02-01T08:34:25;7.00;63.00
24636;DHT22;12772;49.794;10.024;2023-02-01T08:38:27;7.10;63.10
24636;DHT22;12772;49.794;10.024;2023-02-01T08:42:29;7.20;63.10
24636;DHT22;12772;49.794;10.024;2023-02-01T08:46:49;7.20;62.60
24636;DHT22;12772;49.794;10.024;2023-02-01T08:50:51;7.00;62.10
24636;DHT22;12772;49.794;10.024;2023-02-01T08:54:53;7.20;61.60
24636;DHT22;12772;49.794;10.024;2023-02-01T08:58:55;7.30;60.70
24636;DHT22;12772;49.794;10.024;2023-02-01T09:02:57;7.60;60.20
24636;DHT22;12772;49.794;10.024;2023-02-01T09:06:59;7.30;58.40
24636;DHT22;12772;49.794;10.024;2023-02-01T09:11:03;7.60;58.70
24636;DHT22;12772;49.794;10.024;2023-02-01T09:15:06;7.70;58.70
24636;DHT22;12772;49.794;10.024;2023-02-01T09:19:09;7.40;57.20
24636;DHT22;12772;49.794;10.024;2023-02-01T09:23:11;7.60;57.40
24636;DHT22;12772;49.794;10.024;2023-02-01T09:27:13;7.30;57.00
24636;DHT22;12772;49.794;10.024;2023-02-01T09:31:15;7.30;57.30
24636;DHT22;12772;49.794;10.024;2023-02-01T09:35:17;7.30;57.20
24636;DHT22;12772;49.794;10.024;2023-02-01T09:39:19;7.30;57.50
24636;DHT22;12772;49.794;10.024;2023-02-01T09:43:33;7.60;57.70
24636;DHT22;12772;49.794;10.024;2023-02-01T09:47:46;7.70;58.00
24636;DHT22;12772;49.794;10.024;2023-02-01T09:51:51;7.60;57.30
24636;DHT22;12772;49.794;10.024;2023-02-01T09:55:59;7.60;56.90
24636;DHT22;12772;49.794;10.024;2023-02-01T10:00:20;7.60;56.70
24636;DHT22;12772;49.794;10.024;2023-02-01T10:04:24;7.60;56.80
24636;DHT22;12772;49.794;10.024;2023-02-01T10:08:49;7.20;55.20
24636;DHT22;12772;49.794;10.024;2023-02-01T10:25:57;7.90;56.00
24636;DHT22;12772;49.794;10.024;2023-02-01T10:34:22;7.70;55.80
24636;DHT22;12772;49.794;10.024;2023-02-01T10:38:27;7.90;54.90
24636;DHT22;12772;49.794;10.024;2023-02-01T10:42:31;7.80;55.10
24636;DHT22;12772;49.794;10.024;2023-02-01T10:46:33;7.90;54.40
24636;DHT22;12772;49.794;10.024;2023-02-01T10:50:40;7.60;53.30
24636;DHT22;12772;49.794;10.024;2023-02-01T10:54:45;8.20;52.20
24636;DHT22;12772;49.794;10.024;2023-02-01T10:58:48;7.90;52.10
24636;DHT22;12772;49.794;10.024;2023-02-01T11:02:50;7.70;50.70
24636;DHT22;12772;49.794;10.024;2023-02-01T11:07:06;7.90;51.70
24636;DHT22;12772;49.794;10.024;2023-02-01T11:11:09;7.60;50.90
24636;DHT22;12772;49.794;10.024;2023-02-01T11:15:19;7.60;50.60
24636;DHT22;12772;49.794;10.024;2023-02-01T11:19:22;7.60;50.20
24636;DHT22;12772;49.794;10.024;2023-02-01T11:23:25;7.60;50.30
24636;DHT22;12772;49.794;10.024;2023-02-01T11:27:29;8.00;50.20
24636;DHT22;12772;49.794;10.024;2023-02-01T11:31:33;8.10;50.50
24636;DHT22;12772;49.794;10.024;2023-02-01T11:35:39;8.10;51.00
24636;DHT22;12772;49.794;10.024;2023-02-01T11:39:43;7.70;49.20
24636;DHT22;12772;49.794;10.024;2023-02-01T11:43:59;7.90;48.60
24636;DHT22;12772;49.794;10.024;2023-02-01T11:48:10;8.10;47.90
24636;DHT22;12772;49.794;10.024;2023-02-01T11:52:45;8.80;46.20
24636;DHT22;12772;49.794;10.024;2023-02-01T12:10:53;9.00;42.40
24636;DHT22;12772;49.794;10.024;2023-02-01T12:20:02;8.90;42.90
24636;DHT22;12772;49.794;10.024;2023-02-01T12:24:41;8.90;43.80
24636;DHT22;12772;49.794;10.024;2023-02-01T12:33:45;8.60;43.50
24636;DHT22;12772;49.794;10.024;2023-02-01T12:38:44;8.50;43.40
24636;DHT22;12772;49.794;10.024;2023-02-01T12:42:43;8.50;43.90
24636;DHT22;12772;49.794;10.024;2023-02-01T12:46:52;8.60;44.10
24636;DHT22;12772;49.794;10.024;2023-02-01T12:50:57;8.30;44.00
24636;DHT22;12772;49.794;10.024;2023-02-01T12:55:17;8.10;44.00
24636;DHT22;12772;49.794;10.024;2023-02-01T12:59:26;8.40;44.90
24636;DHT22;12772;49.794;10.024;2023-02-01T13:07:41;8.40;45.00
24636;DHT22;12772;49.794;10.024;2023-02-01T13:11:46;8.30;45.00
24636;DHT22;12772;49.794;10.024;2023-02-01T13:24:40;8.40;45.60
24636;DHT22;12772;49.794;10.024;2023-02-01T13:28:49;8.50;45.70
24636;DHT22;12772;49.794;10.024;2023-02-01T13:33:01;8.40;45.90
24636;DHT22;12772;49.794;10.024;2023-02-01T13:41:31;8.60;46.30
24636;DHT22;12772;49.794;10.024;2023-02-01T13:45:36;8.30;46.20
24636;DHT22;12772;49.794;10.024;2023-02-01T13:49:40;8.10;45.80
24636;DHT22;12772;49.794;10.024;2023-02-01T13:53:47;8.00;45.50
24636;DHT22;12772;49.794;10.024;2023-02-01T13:57:58;7.90;45.40
24636;DHT22;12772;49.794;10.024;2023-02-01T14:02:44;8.40;46.00
24636;DHT22;12772;49.794;10.024;2023-02-01T14:06:47;8.20;46.00
24636;DHT22;12772;49.794;10.024;2023-02-01T14:10:58;7.80;45.40
24636;DHT22;12772;49.794;10.024;2023-02-01T14:19:28;8.30;45.70
24636;DHT22;12772;49.794;10.024;2023-02-01T14:23:40;8.30;45.90
24636;DHT22;12772;49.794;10.024;2023-02-01T14:27:42;7.90;45.20
24636;DHT22;12772;49.794;10.024;2023-02-01T14:32:05;8.20;45.40
24636;DHT22;12772;49.794;10.024;2023-02-01T14:36:12;8.30;45.50
24636;DHT22;12772;49.794;10.024;2023-02-01T14:40:19;8.20;45.10
24636;DHT22;12772;49.794;10.024;2023-02-01T14:44:28;8.10;45.50
24636;DHT22;12772;49.794;10.024;2023-02-01T14:52:35;8.10;45.80
24636;DHT22;12772;49.794;10.024;2023-02-01T14:56:39;7.70;45.40
24636;DHT22;12772;49.794;10.024;2023-02-01T15:00:56;8.10;45.90
24636;DHT22;12772;49.794;10.024;2023-02-01T15:04:58;8.20;46.10
24636;DHT22;12772;49.794;10.024;2023-02-01T15:13:28;8.00;45.90
24636;DHT22;12772;49.794;10.024;2023-02-01T15:17:31;7.70;45.60
24636;DHT22;12772;49.794;10.024;2023-02-01T15:21:46;7.90;45.80
24636;DHT22;12772;49.794;10.024;2023-02-01T15:25:49;8.20;46.10
24636;DHT22;12772;49.794;10.024;2023-02-01T15:29:51;8.20;46.10
24636;DHT22;12772;49.794;10.024;2023-02-01T15:33:57;7.80;46.30
24636;DHT22;12772;49.794;10.024;2023-02-01T15:42:25;8.10;46.20
24636;DHT22;12772;49.794;10.024;2023-02-01T15:46:34;8.00;46.10
24636;DHT22;12772;49.794;10.024;2023-02-01T15:50:39;8.10;46.40
24636;DHT22;12772;49.794;10.024;2023-02-01T15:54:46;7.70;46.20
24636;DHT22;12772;49.794;10.024;2023-02-01T15:58:56;7.60;45.90
24636;DHT22;12772;49.794;10.024;2023-02-01T16:03:20;8.00;46.50
24636;DHT22;12772;49.794;10.024;2023-02-01T16:07:33;7.60;45.90
24636;DHT22;12772;49.794;10.024;2023-02-01T16:12:02;7.50;46.00
24636;DHT22;12772;49.794;10.024;2023-02-01T16:16:03;8.00;46.30
24636;DHT22;12772;49.794;10.024;2023-02-01T16:20:09;8.10;46.30
24636;DHT22;12772;49.794;10.024;2023-02-01T16:24:12;8.20;46.00
24636;DHT22;12772;49.794;10.024;2023-02-01T16:28:14;7.60;45.60
24636;DHT22;12772;49.794;10.024;2023-02-01T16:32:19;7.60;45.80
24636;DHT22;12772;49.794;10.024;2023-02-01T16:36:22;8.20;46.30
24636;DHT22;12772;49.794;10.024;2023-02-01T16:40:24;8.10;46.20
24636;DHT22;12772;49.794;10.024;2023-02-01T16:44:26;8.20;46.50
24636;DHT22;12772;49.794;10.024;2023-02-01T16:48:30;8.10;46.30
24636;DHT22;12772;49.794;10.024;2023-02-01T16:52:35;7.90;46.20
24636;DHT22;12772;49.794;10.024;2023-02-01T16:56:38;7.80;46.00
24636;DHT22;12772;49.794;10.024;2023-02-01T17:00:43;7.60;45.90
24636;DHT22;12772;49.794;10.024;2023-02-01T17:04:45;8.10;46.40
24636;DHT22;12772;49.794;10.024;2023-02-01T17:08:56;8.40;46.90
24636;DHT22;12772;49.794;10.024;2023-02-01T17:12:59;7.70;46.40
24636;DHT22;12772;49.794;10.024;2023-02-01T17:17:01;7.70;46.90
24636;DHT22;12772;49.794;10.024;2023-02-01T17:21:04;8.00;47.90
24636;DHT22;12772;49.794;10.024;2023-02-01T17:25:14;8.00;48.40
24636;DHT22;12772;49.794;10.024;2023-02-01T17:29:17;7.60;48.40
24636;DHT22;12772;49.794;10.024;2023-02-01T17:33:31;8.00;49.30
24636;DHT22;12772;49.794;10.024;2023-02-01T17:37:34;8.00;49.80
24636;DHT22;12772;49.794;10.024;2023-02-01T17:41:36;7.70;49.80
24636;DHT22;12772;49.794;10.024;2023-02-01T17:45:46;7.60;50.20
24636;DHT22;12772;49.794;10.024;2023-02-01T17:49:52;7.90;50.60
24636;DHT22;12772;49.794;10.024;2023-02-01T17:53:56;7.90;50.60
24636;DHT22;12772;49.794;10.024;2023-02-01T17:57:58;7.80;50.60
24636;DHT22;12772;49.794;10.024;2023-02-01T18:02:00;7.60;50.30
24636;DHT22;12772;49.794;10.024;2023-02-01T18:06:03;7.40;49.90
24636;DHT22;12772;49.794;10.024;2023-02-01T18:10:05;7.90;50.60
24636;DHT22;12772;49.794;10.024;2023-02-01T18:14:10;7.90;50.30
24636;DHT22;12772;49.794;10.024;2023-02-01T18:18:12;7.90;49.80
24636;DHT22;12772;49.794;10.024;2023-02-01T18:22:16;7.90;50.00
24636;DHT22;12772;49.794;10.024;2023-02-01T18:26:18;7.60;49.40
24636;DHT22;12772;49.794;10.024;2023-02-01T18:30:23;7.70;49.50
24636;DHT22;12772;49.794;10.024;2023-02-01T18:34:25;7.80;49.60
24636;DHT22;12772;49.794;10.024;2023-02-01T18:38:27;7.80;49.50
24636;DHT22;12772;49.794;10.024;2023-02-01T18:42:29;7.50;48.90
24636;DHT22;12772;49.794;10.024;2023-02-01T18:46:31;8.00;49.60
24636;DHT22;12772;49.794;10.024;2023-02-01T18:50:38;8.00;49.60
24636;DHT22;12772;49.794;10.024;2023-02-01T18:54:40;7.70;49.30
24636;DHT22;12772;49.794;10.024;2023-02-01T18:58:43;8.00;49.70
24636;DHT22;12772;49.794;10.024;2023-02-01T19:02:45;8.00;49.60
24636;DHT22;12772;49.794;10.024;2023-02-01T19:06:47;8.00;49.60
24636;DHT22;12772;49.794;10.024;2023-02-01T19:10:49;8.00;49.60
24636;DHT22;12772;49.794;10.024;2023-02-01T19:14:51;7.50;49.20
24636;DHT22;12772;49.794;10.024;2023-02-01T19:18:53;7.60;49.40
24636;DHT22;12772;49.794;10.024;2023-02-01T19:22:55;8.00;49.90
24636;DHT22;12772;49.794;10.024;2023-02-01T19:26:57;8.00;50.00
24636;DHT22;12772;49.794;10.024;2023-02-01T19:31:04;8.00;50.10
24636;DHT22;12772;49.794;10.024;2023-02-01T19:35:07;8.00;50.80
24636;DHT22;12772;49.794;10.024;2023-02-01T19:39:09;8.00;51.40
24636;DHT22;12772;49.794;10.024;2023-02-01T19:43:12;8.00;51.70
24636;DHT22;12772;49.794;10.024;2023-02-01T19:47:14;7.60;51.50
24636;DHT22;12772;49.794;10.024;2023-02-01T19:51:16;8.20;52.00
24636;DHT22;12772;49.794;10.024;2023-02-01T19:55:18;7.80;51.70
24636;DHT22;12772;49.794;10.024;2023-02-01T19:59:20;8.00;52.70
24636;DHT22;12772;49.794;10.024;2023-02-01T20:03:23;7.80;53.20
24636;DHT22;12772;49.794;10.024;2023-02-01T20:07:25;7.50;53.20
24636;DHT22;12772;49.794;10.024;2023-02-01T20:11:27;8.00;54.00
24636;DHT22;12772;49.794;10.024;2023-02-01T20:15:29;8.00;54.20
24636;DHT22;12772;49.794;10.024;2023-02-01T20:19:32;7.90;54.90
24636;DHT22;12772;49.794;10.024;2023-02-01T20:23:34;7.50;55.50
24636;DHT22;12772;49.794;10.024;2023-02-01T20:27:37;7.90;56.00
24636;DHT22;12772;49.794;10.024;2023-02-01T20:31:40;7.50;55.60
24636;DHT22;12772;49.794;10.024;2023-02-01T20:35:45;7.40;56.50
24636;DHT22;12772;49.794;10.024;2023-02-01T20:39:47;7.20;57.00
24636;DHT22;12772;49.794;10.024;2023-02-01T20:43:49;7.20;57.40
24636;DHT22;12772;49.794;10.024;2023-02-01T20:47:51;7.40;58.10
24636;DHT22;12772;49.794;10.024;2023-02-01T20:51:53;7.60;58.90
24636;DHT22;12772;49.794;10.024;2023-02-01T20:55:57;7.50;59.20
24636;DHT22;12772;49.794;10.024;2023-02-01T21:00:00;7.30;59.60
24636;DHT22;12772;49.794;10.024;2023-02-01T21:04:02;7.40;60.00
24636;DHT22;12772;49.794;10.024;2023-02-01T21:08:11;7.00;59.90
24636;DHT22;12772;49.794;10.024;2023-02-01T21:12:13;7.30;60.50
24636;DHT22;12772;49.794;10.024;2023-02-01T21:16:18;7.10;60.80
24636;DHT22;12772;49.794;10.024;2023-02-01T21:20:21;7.30;61.10
24636;DHT22;12772;49.794;10.024;2023-02-01T21:24:23;7.30;61.20
24636;DHT22;12772;49.794;10.024;2023-02-01T21:28:25;7.20;61.10
24636;DHT22;12772;49.794;10.024;2023-02-01T21:32:27;7.10;61.10
24636;DHT22;12772;49.794;10.024;2023-02-01T21:36:29;7.60;61.20
24636;DHT22;12772;49.794;10.024;2023-02-01T21:40:35;6.90;60.50
24636;DHT22;12772;49.794;10.024;2023-02-01T21:44:41;7.00;60.40
24636;DHT22;12772;49.794;10.024;2023-02-01T21:48:45;7.00;60.40
24636;DHT22;12772;49.794;10.024;2023-02-01T21:52:48;7.30;60.60
24636;DHT22;12772;49.794;10.024;2023-02-01T21:56:50;7.40;60.60
24636;DHT22;12772;49.794;10.024;2023-02-01T22:00:52;7.50;60.50
24636;DHT22;12772;49.794;10.024;2023-02-01T22:04:54;6.80;59.90
24636;DHT22;12772;49.794;10.024;2023-02-01T22:08:57;7.10;59.90
24636;DHT22;12772;49.794;10.024;2023-02-01T22:12:59;7.40;59.90
24636;DHT22;12772;49.794;10.024;2023-02-01T22:17:05;7.10;59.10
24636;DHT22;12772;49.794;10.024;2023-02-01T22:21:08;7.50;59.20
24636;DHT22;12772;49.794;10.024;2023-02-01T22:25:10;7.40;58.80
24636;DHT22;12772;49.794;10.024;2023-02-01T22:29:12;7.70;58.90
24636;DHT22;12772;49.794;10.024;2023-02-01T22:33:15;7.60;58.00
24636;DHT22;12772;49.794;10.024;2023-02-01T22:37:17;7.40;57.60
24636;DHT22;12772;49.794;10.024;2023-02-01T22:41:19;7.10;56.90
24636;DHT22;12772;49.794;10.024;2023-02-01T22:45:21;7.70;57.10
24636;DHT22;12772;49.794;10.024;2023-02-01T22:54:20;7.70;55.90
24636;DHT22;12772;49.794;10.024;2023-02-01T22:58:22;7.50;55.50
24636;DHT22;12772;49.794;10.024;2023-02-01T23:02:24;7.70;55.80
24636;DHT22;12772;49.794;10.024;2023-02-01T23:06:27;7.40;55.40
24636;DHT22;12772;49.794;10.024;2023-02-01T23:10:29;7.30;55.40
24636;DHT22;12772;49.794;10.024;2023-02-01T23:14:31;7.30;55.40
24636;DHT22;12772;49.794;10.024;2023-02-01T23:18:33;7.60;55.60
24636;DHT22;12772;49.794;10.024;2023-02-01T23:22:35;7.40;55.60
24636;DHT22;12772;49.794;10.024;2023-02-01T23:26:37;7.40;56.30
24636;DHT22;12772;49.794;10.024;2023-02-01T23:30:39;7.80;56.80
24636;DHT22;12772;49.794;10.024;2023-02-01T23:34:42;7.90;56.60
24636;DHT22;12772;49.794;10.024;2023-02-01T23:38:45;7.80;56.50
24636;DHT22;12772;49.794;10.024;2023-02-01T23:42:47;7.60;55.60
24636;DHT22;12772;49.794;10.024;2023-02-01T23:47:10;7.50;55.60
24636;DHT22;12772;49.794;10.024;2023-02-01T23:51:13;7.80;55.90
24636;DHT22;12772;49.794;10.024;2023-02-01T23:55:15;8.00;56.10
24636;DHT22;12772;49.794;10.024;2023-02-01T23:59:20;7.90;56.00
